sensor_id;sensor_type;location;lat;lon;timestamp;pressure;altitude;pressure_sealevel;temperature;humidity
18987;BME280;9627;59.236;18.142;2023-03-13T00:01:16;99796.72;;;-7.31;100.00
18987;BME280;9627;59.236;18.142;2023-03-13T00:03:43;99800.50;;;-7.37;100.00
18987;BME280;9627;59.236;18.142;2023-03-13T00:06:10;99816.50;;;-7.32;100.00
18987;BME280;9627;59.236;18.142;2023-03-13T00:08:37;99807.91;;;-7.18;100.00
18987;BME280;9627;59.236;18.142;2023-03-13T00:11:05;99808.28;;;-7.24;100.00
18987;BME280;9627;59.236;18.142;2023-03-13T00:13:33;99814.50;;;-7.27;100.00
18987;BME280;9627;59.236;18.142;2023-03-13T00:16:00;99813.66;;;-7.27;100.00
18987;BME280;9627;59.236;18.142;2023-03-13T00:18:29;99814.50;;;-7.27;100.00
18987;BME280;9627;59.236;18.142;2023-03-13T00:20:57;99810.69;;;-7.21;100.00
18987;BME280;9627;59.236;18.142;2023-03-13T00:23:24;99808.50;;;-7.27;100.00
18987;BME280;9627;59.236;18.142;2023-03-13T00:25:54;99807.50;;;-7.25;100.00
18987;BME280;9627;59.236;18.142;2023-03-13T00:28:21;99809.97;;;-7.23;100.00
18987;BME280;9627;59.236;18.142;2023-03-13T00:30:48;99810.34;;;-7.29;100.00
18987;BME280;9627;59.236;18.142;2023-03-13T00:33:15;99802.44;;;-7.26;100.00
18987;BME280;9627;59.236;18.142;2023-03-13T00:35:44;99813.56;;;-7.26;100.00
18987;BME280;9627;59.236;18.142;2023-03-13T00:38:11;99800.03;;;-7.29;100.00
18987;BME280;9627;59.236;18.142;2023-03-13T00:40:38;99801.34;;;-7.36;100.00
18987;BME280;9627;59.236;18.142;2023-03-13T00:43:05;99803.91;;;-7.36;100.00
18987;BME280;9627;59.236;18.142;2023-03-13T00:45:31;99804.19;;;-7.41;100.00
18987;BME280;9627;59.236;18.142;2023-03-13T00:47:58;99800.84;;;-7.29;100.00
18987;BME280;9627;59.236;18.142;2023-03-13T00:50:25;99794.81;;;-7.42;100.00
18987;BME280;9627;59.236;18.142;2023-03-13T00:52:54;99789.72;;;-7.43;100.00
18987;BME280;9627;59.236;18.142;2023-03-13T00:55:21;99790.84;;;-7.47;100.00
18987;BME280;9627;59.236;18.142;2023-03-13T00:57:48;99783.84;;;-7.45;100.00
18987;BME280;9627;59.236;18.142;2023-03-13T01:00:15;99787.66;;;-7.24;100.00
18987;BME280;9627;59.236;18.142;2023-03-13T01:02:42;99789.53;;;-7.26;100.00
18987;BME280;9627;59.236;18.142;2023-03-13T01:05:09;99783.66;;;-7.42;100.00
18987;BME280;9627;59.236;18.142;2023-03-13T01:07:37;99779.06;;;-7.51;100.00
18987;BME280;9627;59.236;18.142;2023-03-13T01:10:07;99778.28;;;-7.39;100.00
18987;BME280;9627;59.236;18.142;2023-03-13T01:12:34;99769.50;;;-7.49;100.00
18987;BME280;9627;59.236;18.142;2023-03-13T01:15:01;99765.16;;;-7.49;100.00
18987;BME280;9627;59.236;18.142;2023-03-13T01:17:28;99759.81;;;-7.46;100.00
18987;BME280;9627;59.236;18.142;2023-03-13T01:19:56;99752.09;;;-7.46;100.00
18987;BME280;9627;59.236;18.142;2023-03-13T01:22:23;99749.78;;;-7.50;100.00
18987;BME280;9627;59.236;18.142;2023-03-13T01:24:51;99747.53;;;-7.28;100.00
18987;BME280;9627;59.236;18.142;2023-03-13T01:27:20;99740.72;;;-7.29;100.00
18987;BME280;9627;59.236;18.142;2023-03-13T01:29:47;99741.69;;;-7.18;100.00
18987;BME280;9627;59.236;18.142;2023-03-13T01:32:14;99746.47;;;-7.12;100.00
18987;BME280;9627;59.236;18.142;2023-03-13T01:34:41;99736.78;;;-7.08;100.00
18987;BME280;9627;59.236;18.142;2023-03-13T01:37:08;99730.78;;;-7.09;100.00
18987;BME280;9627;59.236;18.142;2023-03-13T01:39:34;99730.16;;;-7.12;100.00
18987;BME280;9627;59.236;18.142;2023-03-13T01:42:01;99731.41;;;-7.05;100.00
18987;BME280;9627;59.236;18.142;2023-03-13T01:44:46;99726.09;;;-7.02;100.00
18987;BME280;9627;59.236;18.142;2023-03-13T01:47:14;99727.09;;;-7.05;100.00
18987;BME280;9627;59.236;18.142;2023-03-13T01:49:41;99721.22;;;-7.07;100.00
18987;BME280;9627;59.236;18.142;2023-03-13T01:52:09;99724.84;;;-7.09;100.00
18987;BME280;9627;59.236;18.142;2023-03-13T01:54:37;99726.84;;;-7.14;100.00
18987;BME280;9627;59.236;18.142;2023-03-13T01:57:07;99724.47;;;-7.17;100.00
18987;BME280;9627;59.236;18.142;2023-03-13T01:59:39;99721.56;;;-7.25;100.00
18987;BME280;9627;59.236;18.142;2023-03-13T02:02:07;99718.09;;;-7.38;100.00
18987;BME280;9627;59.236;18.142;2023-03-13T02:04:35;99718.38;;;-7.43;100.00
18987;BME280;9627;59.236;18.142;2023-03-13T02:07:04;99721.25;;;-7.47;100.00
18987;BME280;9627;59.236;18.142;2023-03-13T02:09:33;99717.25;;;-7.39;100.00
18987;BME280;9627;59.236;18.142;2023-03-13T02:12:02;99707.47;;;-7.34;100.00
18987;BME280;9627;59.236;18.142;2023-03-13T02:14:31;99698.69;;;-7.44;100.00
18987;BME280;9627;59.236;18.142;2023-03-13T02:17:01;99701.97;;;-7.69;100.00
18987;BME280;9627;59.236;18.142;2023-03-13T02:19:30;99696.84;;;-7.56;100.00
18987;BME280;9627;59.236;18.142;2023-03-13T02:22:00;99697.59;;;-7.68;100.00
18987;BME280;9627;59.236;18.142;2023-03-13T02:24:33;99685.56;;;-7.68;100.00
18987;BME280;9627;59.236;18.142;2023-03-13T02:27:05;99681.88;;;-7.64;100.00
18987;BME280;9627;59.236;18.142;2023-03-13T02:29:32;99682.88;;;-7.66;100.00
18987;BME280;9627;59.236;18.142;2023-03-13T02:31:59;99685.28;;;-7.77;100.00
18987;BME280;9627;59.236;18.142;2023-03-13T02:34:27;99673.56;;;-7.95;100.00
18987;BME280;9627;59.236;18.142;2023-03-13T02:36:55;99674.66;;;-7.99;100.00
18987;BME280;9627;59.236;18.142;2023-03-13T02:39:24;99667.56;;;-7.96;100.00
18987;BME280;9627;59.236;18.142;2023-03-13T02:41:52;99668.84;;;-7.89;100.00
18987;BME280;9627;59.236;18.142;2023-03-13T02:44:21;99678.16;;;-8.00;100.00
18987;BME280;9627;59.236;18.142;2023-03-13T02:46:49;99666.88;;;-8.26;100.00
18987;BME280;9627;59.236;18.142;2023-03-13T02:49:18;99674.19;;;-8.06;100.00
18987;BME280;9627;59.236;18.142;2023-03-13T02:51:46;99683.75;;;-7.94;100.00
18987;BME280;9627;59.236;18.142;2023-03-13T02:54:14;99681.19;;;-7.94;100.00
18987;BME280;9627;59.236;18.142;2023-03-13T02:56:42;99683.88;;;-7.95;100.00
18987;BME280;9627;59.236;18.142;2023-03-13T02:59:11;99691.50;;;-8.08;100.00
18987;BME280;9627;59.236;18.142;2023-03-13T03:01:39;99683.50;;;-8.03;100.00
18987;BME280;9627;59.236;18.142;2023-03-13T03:04:06;99680.66;;;-8.13;100.00
18987;BME280;9627;59.236;18.142;2023-03-13T03:06:33;99679.44;;;-8.07;100.00
18987;BME280;9627;59.236;18.142;2023-03-13T03:09:00;99665.47;;;-8.17;100.00
18987;BME280;9627;59.236;18.142;2023-03-13T03:11:27;99663.53;;;-8.14;100.00
18987;BME280;9627;59.236;18.142;2023-03-13T03:13:54;99665.28;;;-8.14;100.00
18987;BME280;9627;59.236;18.142;2023-03-13T03:16:21;99665.38;;;-8.16;100.00
18987;BME280;9627;59.236;18.142;2023-03-13T03:18:49;99663.81;;;-8.18;100.00
18987;BME280;9627;59.236;18.142;2023-03-13T03:21:16;99658.22;;;-8.25;100.00
18987;BME280;9627;59.236;18.142;2023-03-13T03:23:43;99660.81;;;-8.25;100.00
18987;BME280;9627;59.236;18.142;2023-03-13T03:26:10;99659.16;;;-8.26;100.00
18987;BME280;9627;59.236;18.142;2023-03-13T03:28:37;99654.28;;;-8.30;100.00
18987;BME280;9627;59.236;18.142;2023-03-13T03:31:04;99646.03;;;-8.35;100.00
18987;BME280;9627;59.236;18.142;2023-03-13T03:33:32;99638.00;;;-8.31;100.00
18987;BME280;9627;59.236;18.142;2023-03-13T03:36:01;99638.94;;;-8.32;100.00
18987;BME280;9627;59.236;18.142;2023-03-13T03:38:28;99641.16;;;-8.26;100.00
18987;BME280;9627;59.236;18.142;2023-03-13T03:40:55;99641.66;;;-8.21;100.00
18987;BME280;9627;59.236;18.142;2023-03-13T03:43:22;99638.19;;;-8.20;100.00
18987;BME280;9627;59.236;18.142;2023-03-13T03:45:49;99633.94;;;-8.21;100.00
18987;BME280;9627;59.236;18.142;2023-03-13T03:48:16;99626.84;;;-8.17;100.00
18987;BME280;9627;59.236;18.142;2023-03-13T03:50:43;99632.09;;;-8.19;100.00
18987;BME280;9627;59.236;18.142;2023-03-13T03:53:11;99630.00;;;-8.26;100.00
18987;BME280;9627;59.236;18.142;2023-03-13T03:55:38;99631.66;;;-8.25;100.00
18987;BME280;9627;59.236;18.142;2023-03-13T03:58:05;99636.13;;;-8.15;100.00
18987;BME280;9627;59.236;18.142;2023-03-13T04:00:32;99635.88;;;-8.10;100.00
18987;BME280;9627;59.236;18.142;2023-03-13T04:02:59;99633.72;;;-8.04;100.00
18987;BME280;9627;59.236;18.142;2023-03-13T04:05:26;99628.97;;;-8.24;100.00
18987;BME280;9627;59.236;18.142;2023-03-13T04:07:53;99628.53;;;-8.30;100.00
18987;BME280;9627;59.236;18.142;2023-03-13T04:10:22;99619.84;;;-8.15;100.00
18987;BME280;9627;59.236;18.142;2023-03-13T04:12:49;99613.31;;;-8.21;100.00
18987;BME280;9627;59.236;18.142;2023-03-13T04:15:16;99604.50;;;-8.17;100.00
18987;BME280;9627;59.236;18.142;2023-03-13T04:17:42;99597.66;;;-8.04;100.00
18987;BME280;9627;59.236;18.142;2023-03-13T04:20:10;99595.59;;;-7.85;100.00
18987;BME280;9627;59.236;18.142;2023-03-13T04:22:38;99585.28;;;-7.71;100.00
18987;BME280;9627;59.236;18.142;2023-03-13T04:25:05;99586.72;;;-7.67;100.00
18987;BME280;9627;59.236;18.142;2023-03-13T04:27:34;99574.38;;;-7.62;100.00
18987;BME280;9627;59.236;18.142;2023-03-13T04:30:01;99568.28;;;-7.61;100.00
18987;BME280;9627;59.236;18.142;2023-03-13T04:32:28;99565.66;;;-7.46;100.00
18987;BME280;9627;59.236;18.142;2023-03-13T04:34:55;99555.16;;;-7.31;100.00
18987;BME280;9627;59.236;18.142;2023-03-13T04:37:23;99552.59;;;-7.18;100.00
18987;BME280;9627;59.236;18.142;2023-03-13T04:39:49;99549.91;;;-7.17;100.00
18987;BME280;9627;59.236;18.142;2023-03-13T04:42:16;99540.59;;;-7.32;100.00
18987;BME280;9627;59.236;18.142;2023-03-13T04:44:45;99535.38;;;-7.30;100.00
18987;BME280;9627;59.236;18.142;2023-03-13T04:47:12;99535.78;;;-7.24;100.00
18987;BME280;9627;59.236;18.142;2023-03-13T04:49:39;99529.91;;;-7.38;100.00
18987;BME280;9627;59.236;18.142;2023-03-13T04:52:06;99528.66;;;-7.33;100.00
18987;BME280;9627;59.236;18.142;2023-03-13T04:54:33;99525.34;;;-7.22;100.00
18987;BME280;9627;59.236;18.142;2023-03-13T04:57:00;99525.91;;;-7.17;100.00
18987;BME280;9627;59.236;18.142;2023-03-13T04:59:27;99523.03;;;-7.00;100.00
18987;BME280;9627;59.236;18.142;2023-03-13T05:01:56;99518.69;;;-7.00;100.00
18987;BME280;9627;59.236;18.142;2023-03-13T05:04:23;99501.44;;;-7.12;100.00
18987;BME280;9627;59.236;18.142;2023-03-13T05:06:50;99496.19;;;-7.23;100.00
18987;BME280;9627;59.236;18.142;2023-03-13T05:09:16;99483.59;;;-7.27;100.00
18987;BME280;9627;59.236;18.142;2023-03-13T05:11:43;99475.22;;;-7.18;100.00
18987;BME280;9627;59.236;18.142;2023-03-13T05:14:10;99482.34;;;-6.97;100.00
18987;BME280;9627;59.236;18.142;2023-03-13T05:16:37;99483.81;;;-6.93;100.00
18987;BME280;9627;59.236;18.142;2023-03-13T05:19:06;99480.38;;;-6.93;100.00
18987;BME280;9627;59.236;18.142;2023-03-13T05:21:33;99480.28;;;-6.79;100.00
18987;BME280;9627;59.236;18.142;2023-03-13T05:24:00;99483.38;;;-6.99;100.00
18987;BME280;9627;59.236;18.142;2023-03-13T05:26:27;99476.75;;;-6.78;100.00
18987;BME280;9627;59.236;18.142;2023-03-13T05:28:54;99474.78;;;-6.75;100.00
18987;BME280;9627;59.236;18.142;2023-03-13T05:31:21;99482.31;;;-6.59;100.00
18987;BME280;9627;59.236;18.142;2023-03-13T05:33:48;99464.22;;;-6.59;100.00
18987;BME280;9627;59.236;18.142;2023-03-13T05:36:17;99456.13;;;-6.42;100.00
18987;BME280;9627;59.236;18.142;2023-03-13T05:38:43;99441.38;;;-6.16;100.00
18987;BME280;9627;59.236;18.142;2023-03-13T05:41:11;99433.78;;;-5.72;100.00
18987;BME280;9627;59.236;18.142;2023-03-13T05:43:37;99440.72;;;-5.61;100.00
18987;BME280;9627;59.236;18.142;2023-03-13T05:46:04;99427.31;;;-5.67;100.00
18987;BME280;9627;59.236;18.142;2023-03-13T05:48:31;99424.97;;;-5.58;100.00
18987;BME280;9627;59.236;18.142;2023-03-13T05:50:58;99426.19;;;-5.51;100.00
18987;BME280;9627;59.236;18.142;2023-03-13T05:53:27;99413.13;;;-5.50;100.00
18987;BME280;9627;59.236;18.142;2023-03-13T05:55:54;99411.59;;;-5.41;100.00
18987;BME280;9627;59.236;18.142;2023-03-13T05:58:21;99397.53;;;-5.15;100.00
18987;BME280;9627;59.236;18.142;2023-03-13T06:00:48;99399.19;;;-4.92;100.00
18987;BME280;9627;59.236;18.142;2023-03-13T06:03:15;99405.16;;;-4.92;100.00
18987;BME280;9627;59.236;18.142;2023-03-13T06:05:42;99410.69;;;-4.85;100.00
18987;BME280;9627;59.236;18.142;2023-03-13T06:08:10;99410.22;;;-4.68;100.00
18987;BME280;9627;59.236;18.142;2023-03-13T06:10:38;99402.38;;;-4.46;100.00
18987;BME280;9627;59.236;18.142;2023-03-13T06:13:05;99399.06;;;-4.26;100.00
18987;BME280;9627;59.236;18.142;2023-03-13T06:15:32;99403.34;;;-4.15;100.00
18987;BME280;9627;59.236;18.142;2023-03-13T06:17:59;99383.25;;;-3.91;100.00
18987;BME280;9627;59.236;18.142;2023-03-13T06:20:26;99376.97;;;-3.89;100.00
18987;BME280;9627;59.236;18.142;2023-03-13T06:22:53;99377.09;;;-3.69;100.00
18987;BME280;9627;59.236;18.142;2023-03-13T06:25:20;99375.88;;;-3.45;100.00
18987;BME280;9627;59.236;18.142;2023-03-13T06:27:49;99377.72;;;-3.36;100.00
18987;BME280;9627;59.236;18.142;2023-03-13T06:30:16;99367.63;;;-3.29;100.00
18987;BME280;9627;59.236;18.142;2023-03-13T06:32:43;99371.63;;;-3.25;100.00
18987;BME280;9627;59.236;18.142;2023-03-13T06:35:10;99368.94;;;-3.14;100.00
18987;BME280;9627;59.236;18.142;2023-03-13T06:37:37;99367.06;;;-3.03;100.00
18987;BME280;9627;59.236;18.142;2023-03-13T06:40:04;99365.88;;;-2.89;100.00
18987;BME280;9627;59.236;18.142;2023-03-13T06:42:32;99370.31;;;-2.70;100.00
18987;BME280;9627;59.236;18.142;2023-03-13T06:45:01;99375.53;;;-2.61;100.00
18987;BME280;9627;59.236;18.142;2023-03-13T06:47:29;99371.19;;;-2.51;100.00
18987;BME280;9627;59.236;18.142;2023-03-13T06:49:56;99362.03;;;-2.45;100.00
18987;BME280;9627;59.236;18.142;2023-03-13T06:52:23;99355.47;;;-2.30;100.00
18987;BME280;9627;59.236;18.142;2023-03-13T06:54:50;99345.06;;;-2.21;100.00
18987;BME280;9627;59.236;18.142;2023-03-13T06:57:20;99338.66;;;-2.07;100.00
18987;BME280;9627;59.236;18.142;2023-03-13T06:59:47;99334.81;;;-1.94;100.00
18987;BME280;9627;59.236;18.142;2023-03-13T07:02:15;99320.03;;;-1.93;100.00
18987;BME280;9627;59.236;18.142;2023-03-13T07:04:42;99308.78;;;-1.84;100.00
18987;BME280;9627;59.236;18.142;2023-03-13T07:07:10;99301.63;;;-1.63;100.00
18987;BME280;9627;59.236;18.142;2023-03-13T07:09:37;99304.69;;;-1.40;100.00
18987;BME280;9627;59.236;18.142;2023-03-13T07:12:05;99287.13;;;-1.29;100.00
18987;BME280;9627;59.236;18.142;2023-03-13T07:14:32;99295.72;;;-1.19;100.00
18987;BME280;9627;59.236;18.142;2023-03-13T07:16:59;99285.41;;;-0.93;100.00
18987;BME280;9627;59.236;18.142;2023-03-13T07:19:28;99277.38;;;-0.82;100.00
18987;BME280;9627;59.236;18.142;2023-03-13T07:21:55;99280.69;;;-0.62;100.00
18987;BME280;9627;59.236;18.142;2023-03-13T07:24:22;99273.13;;;-0.56;100.00
18987;BME280;9627;59.236;18.142;2023-03-13T07:26:49;99271.97;;;-0.36;100.00
18987;BME280;9627;59.236;18.142;2023-03-13T07:29:16;99278.38;;;-0.30;100.00
18987;BME280;9627;59.236;18.142;2023-03-13T07:31:43;99262.88;;;-0.14;100.00
18987;BME280;9627;59.236;18.142;2023-03-13T07:34:10;99262.78;;;-0.05;100.00
18987;BME280;9627;59.236;18.142;2023-03-13T07:36:39;99248.91;;;-0.05;100.00
18987;BME280;9627;59.236;18.142;2023-03-13T07:39:06;99230.06;;;0.01;100.00
18987;BME280;9627;59.236;18.142;2023-03-13T07:41:33;99241.34;;;0.10;100.00
18987;BME280;9627;59.236;18.142;2023-03-13T07:44:00;99222.47;;;0.16;100.00
18987;BME280;9627;59.236;18.142;2023-03-13T07:46:27;99222.63;;;0.14;100.00
18987;BME280;9627;59.236;18.142;2023-03-13T07:48:54;99199.69;;;0.26;100.00
18987;BME280;9627;59.236;18.142;2023-03-13T07:51:22;99219.47;;;0.28;100.00
18987;BME280;9627;59.236;18.142;2023-03-13T07:53:51;99222.75;;;0.30;100.00
18987;BME280;9627;59.236;18.142;2023-03-13T07:56:19;99198.50;;;0.46;100.00
18987;BME280;9627;59.236;18.142;2023-03-13T07:58:46;99195.03;;;0.37;100.00
18987;BME280;9627;59.236;18.142;2023-03-13T08:01:13;99198.19;;;0.49;100.00
18987;BME280;9627;59.236;18.142;2023-03-13T08:03:42;99183.66;;;0.46;100.00
18987;BME280;9627;59.236;18.142;2023-03-13T08:06:09;99176.31;;;0.42;100.00
18987;BME280;9627;59.236;18.142;2023-03-13T08:08:37;99163.75;;;0.45;100.00
18987;BME280;9627;59.236;18.142;2023-03-13T08:11:06;99159.47;;;0.44;100.00
18987;BME280;9627;59.236;18.142;2023-03-13T08:13:33;99146.00;;;0.15;100.00
18987;BME280;9627;59.236;18.142;2023-03-13T08:16:05;99130.53;;;0.22;100.00
18987;BME280;9627;59.236;18.142;2023-03-13T08:18:32;99125.78;;;0.17;100.00
18987;BME280;9627;59.236;18.142;2023-03-13T08:21:01;99117.47;;;0.22;100.00
18987;BME280;9627;59.236;18.142;2023-03-13T08:23:28;99113.16;;;0.05;100.00
18987;BME280;9627;59.236;18.142;2023-03-13T08:25:55;99101.53;;;-0.09;100.00
18987;BME280;9627;59.236;18.142;2023-03-13T08:28:24;99103.66;;;-0.05;100.00
18987;BME280;9627;59.236;18.142;2023-03-13T08:30:51;99091.03;;;-0.17;100.00
18987;BME280;9627;59.236;18.142;2023-03-13T08:33:18;99081.09;;;-0.22;100.00
18987;BME280;9627;59.236;18.142;2023-03-13T08:35:45;99064.13;;;-0.26;100.00
18987;BME280;9627;59.236;18.142;2023-03-13T08:38:12;99067.56;;;-0.25;100.00
18987;BME280;9627;59.236;18.142;2023-03-13T08:40:39;99040.19;;;-0.21;100.00
18987;BME280;9627;59.236;18.142;2023-03-13T08:43:06;99037.06;;;-0.25;100.00
18987;BME280;9627;59.236;18.142;2023-03-13T08:45:35;98999.75;;;-0.17;100.00
18987;BME280;9627;59.236;18.142;2023-03-13T08:48:02;99019.16;;;-0.20;100.00
18987;BME280;9627;59.236;18.142;2023-03-13T08:50:29;99004.81;;;-0.24;100.00
18987;BME280;9627;59.236;18.142;2023-03-13T08:52:56;98993.44;;;-0.15;100.00
18987;BME280;9627;59.236;18.142;2023-03-13T08:55:22;98999.16;;;-0.03;100.00
18987;BME280;9627;59.236;18.142;2023-03-13T08:57:49;98975.66;;;-0.19;100.00
18987;BME280;9627;59.236;18.142;2023-03-13T09:00:17;98970.00;;;0.02;100.00
18987;BME280;9627;59.236;18.142;2023-03-13T09:02:46;98984.00;;;-0.08;100.00
18987;BME280;9627;59.236;18.142;2023-03-13T09:05:13;98964.47;;;0.05;100.00
18987;BME280;9627;59.236;18.142;2023-03-13T09:07:40;98956.47;;;0.06;100.00
18987;BME280;9627;59.236;18.142;2023-03-13T09:10:07;98941.31;;;0.18;100.00
18987;BME280;9627;59.236;18.142;2023-03-13T09:12:34;98924.22;;;0.23;100.00
18987;BME280;9627;59.236;18.142;2023-03-13T09:15:01;98918.19;;;0.23;100.00
18987;BME280;9627;59.236;18.142;2023-03-13T09:17:28;98919.31;;;0.20;100.00
18987;BME280;9627;59.236;18.142;2023-03-13T09:19:57;98899.75;;;0.24;100.00
18987;BME280;9627;59.236;18.142;2023-03-13T09:22:23;98888.50;;;0.24;100.00
18987;BME280;9627;59.236;18.142;2023-03-13T09:24:50;98883.13;;;0.17;100.00
18987;BME280;9627;59.236;18.142;2023-03-13T09:27:17;98838.75;;;0.25;100.00
18987;BME280;9627;59.236;18.142;2023-03-13T09:29:45;98847.06;;;0.29;100.00
18987;BME280;9627;59.236;18.142;2023-03-13T09:32:12;98854.25;;;0.35;100.00
18987;BME280;9627;59.236;18.142;2023-03-13T09:34:39;98880.69;;;0.40;100.00
18987;BME280;9627;59.236;18.142;2023-03-13T09:37:07;98838.06;;;0.55;100.00
18987;BME280;9627;59.236;18.142;2023-03-13T09:39:35;98818.00;;;0.48;100.00
18987;BME280;9627;59.236;18.142;2023-03-13T09:42:04;98825.00;;;0.63;100.00
18987;BME280;9627;59.236;18.142;2023-03-13T09:44:35;98823.22;;;0.56;100.00
18987;BME280;9627;59.236;18.142;2023-03-13T09:47:05;98818.00;;;0.56;100.00
18987;BME280;9627;59.236;18.142;2023-03-13T09:49:38;98797.47;;;0.45;100.00
18987;BME280;9627;59.236;18.142;2023-03-13T09:52:12;98796.34;;;0.39;100.00
18987;BME280;9627;59.236;18.142;2023-03-13T09:54:41;98788.03;;;0.36;100.00
18987;BME280;9627;59.236;18.142;2023-03-13T09:57:12;98787.03;;;0.45;100.00
18987;BME280;9627;59.236;18.142;2023-03-13T09:59:43;98744.97;;;0.40;100.00
18987;BME280;9627;59.236;18.142;2023-03-13T10:02:16;98760.56;;;0.48;100.00
18987;BME280;9627;59.236;18.142;2023-03-13T10:04:46;98754.56;;;0.39;100.00
18987;BME280;9627;59.236;18.142;2023-03-13T10:07:17;98734.34;;;0.41;100.00
18987;BME280;9627;59.236;18.142;2023-03-13T10:09:45;98721.13;;;0.43;100.00
18987;BME280;9627;59.236;18.142;2023-03-13T10:12:13;98723.44;;;0.38;100.00
18987;BME280;9627;59.236;18.142;2023-03-13T10:14:46;98720.16;;;0.36;100.00
18987;BME280;9627;59.236;18.142;2023-03-13T10:17:19;98719.34;;;0.35;100.00
18987;BME280;9627;59.236;18.142;2023-03-13T10:19:53;98736.19;;;0.25;100.00
18987;BME280;9627;59.236;18.142;2023-03-13T10:22:24;98723.75;;;0.35;100.00
18987;BME280;9627;59.236;18.142;2023-03-13T10:24:53;98679.38;;;0.35;100.00
18987;BME280;9627;59.236;18.142;2023-03-13T10:27:22;98698.38;;;0.21;100.00
18987;BME280;9627;59.236;18.142;2023-03-13T10:29:49;98681.03;;;0.28;100.00
18987;BME280;9627;59.236;18.142;2023-03-13T10:32:16;98666.34;;;0.35;100.00
18987;BME280;9627;59.236;18.142;2023-03-13T10:34:47;98679.09;;;0.30;100.00
18987;BME280;9627;59.236;18.142;2023-03-13T10:37:16;98647.41;;;0.33;100.00
18987;BME280;9627;59.236;18.142;2023-03-13T10:39:47;98650.69;;;0.35;100.00
18987;BME280;9627;59.236;18.142;2023-03-13T10:42:17;98642.81;;;0.43;100.00
18987;BME280;9627;59.236;18.142;2023-03-13T10:44:45;98634.50;;;0.47;100.00
18987;BME280;9627;59.236;18.142;2023-03-13T10:47:13;98615.03;;;0.50;100.00
18987;BME280;9627;59.236;18.142;2023-03-13T10:49:45;98618.50;;;0.42;100.00
18987;BME280;9627;59.236;18.142;2023-03-13T10:52:24;98618.69;;;0.41;100.00
18987;BME280;9627;59.236;18.142;2023-03-13T10:54:56;98598.28;;;0.44;100.00
18987;BME280;9627;59.236;18.142;2023-03-13T10:57:27;98578.22;;;0.45;100.00
18987;BME280;9627;59.236;18.142;2023-03-13T10:59:54;98590.63;;;0.43;100.00
18987;BME280;9627;59.236;18.142;2023-03-13T11:02:22;98581.28;;;0.48;100.00
18987;BME280;9627;59.236;18.142;2023-03-13T11:04:50;98577.84;;;0.48;100.00
18987;BME280;9627;59.236;18.142;2023-03-13T11:07:20;98539.00;;;0.53;100.00
18987;BME280;9627;59.236;18.142;2023-03-13T11:09:57;98562.50;;;0.53;100.00
18987;BME280;9627;59.236;18.142;2023-03-13T11:12:25;98518.63;;;0.48;100.00
18987;BME280;9627;59.236;18.142;2023-03-13T11:14:56;98526.59;;;0.55;100.00
18987;BME280;9627;59.236;18.142;2023-03-13T11:17:23;98528.56;;;0.53;100.00
18987;BME280;9627;59.236;18.142;2023-03-13T11:19:57;98496.06;;;0.55;100.00
18987;BME280;9627;59.236;18.142;2023-03-13T11:22:32;98495.38;;;0.61;100.00
18987;BME280;9627;59.236;18.142;2023-03-13T11:25:10;98489.25;;;0.54;100.00
18987;BME280;9627;59.236;18.142;2023-03-13T11:27:41;98485.88;;;0.46;100.00
18987;BME280;9627;59.236;18.142;2023-03-13T11:30:14;98488.78;;;0.51;100.00
18987;BME280;9627;59.236;18.142;2023-03-13T11:32:42;98485.97;;;0.52;100.00
18987;BME280;9627;59.236;18.142;2023-03-13T11:35:17;98448.63;;;0.52;100.00
18987;BME280;9627;59.236;18.142;2023-03-13T11:37:46;98465.91;;;0.53;100.00
18987;BME280;9627;59.236;18.142;2023-03-13T11:40:19;98463.94;;;0.55;100.00
18987;BME280;9627;59.236;18.142;2023-03-13T11:43:00;98422.06;;;0.48;100.00
18987;BME280;9627;59.236;18.142;2023-03-13T11:45:41;98437.72;;;0.48;100.00
18987;BME280;9627;59.236;18.142;2023-03-13T11:48:16;98437.25;;;0.45;100.00
18987;BME280;9627;59.236;18.142;2023-03-13T11:50:48;98413.13;;;0.43;100.00
18987;BME280;9627;59.236;18.142;2023-03-13T11:53:29;98406.59;;;0.47;100.00
18987;BME280;9627;59.236;18.142;2023-03-13T11:56:02;98400.66;;;0.53;100.00
18987;BME280;9627;59.236;18.142;2023-03-13T11:58:34;98391.56;;;0.49;100.00
18987;BME280;9627;59.236;18.142;2023-03-13T12:01:05;98379.16;;;0.51;100.00
18987;BME280;9627;59.236;18.142;2023-03-13T12:03:35;98352.41;;;0.49;100.00
18987;BME280;9627;59.236;18.142;2023-03-13T12:06:04;98348.34;;;0.46;100.00
18987;BME280;9627;59.236;18.142;2023-03-13T12:08:33;98362.84;;;0.49;100.00
18987;BME280;9627;59.236;18.142;2023-03-13T12:11:05;98331.78;;;0.54;100.00
18987;BME280;9627;59.236;18.142;2023-03-13T12:13:36;98332.97;;;0.51;100.00
18987;BME280;9627;59.236;18.142;2023-03-13T12:16:08;98356.28;;;0.53;100.00
18987;BME280;9627;59.236;18.142;2023-03-13T12:18:36;98306.88;;;0.51;100.00
18987;BME280;9627;59.236;18.142;2023-03-13T12:21:05;98306.69;;;0.53;100.00
18987;BME280;9627;59.236;18.142;2023-03-13T12:23:39;98299.75;;;0.45;100.00
18987;BME280;9627;59.236;18.142;2023-03-13T12:26:11;98288.94;;;0.48;100.00
18987;BME280;9627;59.236;18.142;2023-03-13T12:28:40;98268.25;;;0.47;100.00
18987;BME280;9627;59.236;18.142;2023-03-13T12:31:13;98283.19;;;0.53;100.00
18987;BME280;9627;59.236;18.142;2023-03-13T12:33:44;98261.06;;;0.49;100.00
18987;BME280;9627;59.236;18.142;2023-03-13T12:36:16;98243.75;;;0.48;100.00
18987;BME280;9627;59.236;18.142;2023-03-13T12:38:47;98239.72;;;0.45;100.00
18987;BME280;9627;59.236;18.142;2023-03-13T12:41:19;98216.06;;;0.47;100.00
18987;BME280;9627;59.236;18.142;2023-03-13T12:43:50;98209.66;;;0.49;100.00
18987;BME280;9627;59.236;18.142;2023-03-13T12:46:24;98204.25;;;0.51;100.00
18987;BME280;9627;59.236;18.142;2023-03-13T12:51:48;98189.22;;;0.53;100.00
18987;BME280;9627;59.236;18.142;2023-03-13T12:54:28;98167.53;;;0.52;100.00
18987;BME280;9627;59.236;18.142;2023-03-13T12:57:03;98169.31;;;0.52;100.00
18987;BME280;9627;59.236;18.142;2023-03-13T12:59:35;98128.19;;;0.54;100.00
18987;BME280;9627;59.236;18.142;2023-03-13T13:02:10;98128.19;;;0.54;100.00